Time;durP1;ratioP1;P1;durP2;ratioP2;P2;SDS_P1;SDS_P2;PMS_P1;PMS_P2;Temp;Humidity;BMP_temperature;BMP_pressure;BME280_temperature;BME280_humidity;BME280_pressure;Samples;Min_cycle;Max_cycle;Signal;HPM_P1;HPM_P2
2022/11/14 00:02:00;;;;;;;;;;;;;;;20.00;47.38;101178.03;5123456;28;19932;-37
2022/11/14 00:04:26;;;;;;;;;;;;;;;20.00;47.38;101166.97;5126540;28;19931;-37
2022/11/14 00:06:55;;;;;;;;;;;;;;;19.99;47.28;101173.63;5128322;28;20294;-38
2022/11/14 00:09:23;;;;;;;;;;;;;;;20.00;47.15;101172.50;5124639;28;20398;-36
2022/11/14 00:11:49;;;;;;;;;;;;;;;20.00;47.05;101174.44;5123590;28;19955;-39
2022/11/14 00:14:14;;;;;;;;;;;;;;;20.00;47.22;101177.19;5126673;28;19935;-38
2022/11/14 00:16:40;;;;;;;;;;;;;;;20.00;47.19;101178.03;5127217;28;19931;-38
2022/11/14 00:19:06;;;;;;;;;;;;;;;19.99;47.05;101173.63;5126107;28;19949;-38
2022/11/14 00:21:31;;;;;;;;;;;;;;;20.00;47.17;101166.97;5122775;28;19924;-38
2022/11/14 00:23:57;;;;;;;;;;;;;;;20.00;47.29;101166.97;5123506;28;20310;-39
2022/11/14 00:26:22;;;;;;;;;;;;;;;20.00;47.15;101166.97;5121836;28;19930;-38
2022/11/14 00:28:48;;;;;;;;;;;;;;;20.00;47.17;101157.84;5124405;28;19924;-40
2022/11/14 00:31:13;;;;;;;;;;;;;;;20.00;47.21;101157.84;5121573;28;19923;-40
2022/11/14 00:33:39;;;;;;;;;;;;;;;19.99;47.18;101164.47;5125468;27;19927;-38
2022/11/14 00:36:05;;;;;;;;;;;;;;;20.00;47.00;101164.19;5122587;28;20604;-38
2022/11/14 00:38:30;;;;;;;;;;;;;;;20.00;47.30;101161.44;5121057;28;19924;-39
2022/11/14 00:40:56;;;;;;;;;;;;;;;20.00;47.11;101163.38;5125079;28;19927;-38
2022/11/14 00:43:22;;;;;;;;;;;;;;;20.00;47.21;101161.44;5119452;27;20402;-40
2022/11/14 00:45:47;;;;;;;;;;;;;;;20.00;47.35;101160.63;5121299;28;19927;-39
2022/11/14 00:48:13;;;;;;;;;;;;;;;20.00;47.09;101152.31;5120353;28;19957;-37
2022/11/14 00:50:39;;;;;;;;;;;;;;;19.99;47.21;101157.03;5126076;28;19924;-39
2022/11/14 00:53:04;;;;;;;;;;;;;;;20.00;47.11;101144.84;5107145;28;19932;-38
2022/11/14 00:55:30;;;;;;;;;;;;;;;19.99;47.05;101137.69;5123544;28;20274;-39
2022/11/14 00:57:56;;;;;;;;;;;;;;;20.00;47.29;101146.78;5123561;28;19927;-38
2022/11/14 01:00:21;;;;;;;;;;;;;;;19.99;47.21;101134.91;5123058;28;19923;-39
2022/11/14 01:02:47;;;;;;;;;;;;;;;19.99;47.29;101137.69;5123476;28;20318;-39
2022/11/14 01:05:12;;;;;;;;;;;;;;;20.00;47.33;101132.97;5120296;27;19924;-38
2022/11/14 01:07:38;;;;;;;;;;;;;;;20.00;47.08;101132.97;5120240;28;19934;-37
2022/11/14 01:10:04;;;;;;;;;;;;;;;20.00;47.16;101130.22;5127486;28;19924;-37
2022/11/14 01:12:29;;;;;;;;;;;;;;;20.00;47.16;101122.75;5124934;28;19927;-37
2022/11/14 01:14:55;;;;;;;;;;;;;;;19.98;47.05;101122.16;5123012;28;19934;-39
2022/11/14 01:17:20;;;;;;;;;;;;;;;19.99;47.02;101118.31;5118658;28;19924;-38
2022/11/14 01:19:46;;;;;;;;;;;;;;;19.99;47.26;101120.22;5125738;28;19946;-39
2022/11/14 01:22:11;;;;;;;;;;;;;;;20.00;47.02;101110.84;5128828;28;19931;-39
2022/11/14 01:24:37;;;;;;;;;;;;;;;19.99;47.21;101109.19;5125036;28;19949;-38
2022/11/14 01:27:02;;;;;;;;;;;;;;;19.99;47.05;101107.28;5128560;28;19924;-39
2022/11/14 01:29:28;;;;;;;;;;;;;;;19.99;47.23;101098.13;5127431;28;19976;-39
2022/11/14 01:31:54;;;;;;;;;;;;;;;19.98;47.43;101091.75;5123550;28;19973;-39
2022/11/14 01:34:19;;;;;;;;;;;;;;;19.99;47.40;101095.34;5107612;28;20031;-39
2022/11/14 01:36:45;;;;;;;;;;;;;;;19.99;47.26;101095.34;5103932;28;19927;-39
2022/11/14 01:39:10;;;;;;;;;;;;;;;20.00;47.08;101091.50;5128106;28;19923;-39
2022/11/14 01:41:36;;;;;;;;;;;;;;;19.99;47.30;101093.44;5126350;28;19923;-38
2022/11/14 01:44:02;;;;;;;;;;;;;;;19.99;47.14;101082.38;5122314;27;19924;-37
2022/11/14 01:46:29;;;;;;;;;;;;;;;20.00;47.04;101077.69;5118309;28;19931;-38
2022/11/14 01:48:56;;;;;;;;;;;;;;;19.99;47.06;101078.78;5123866;28;19974;-39
2022/11/14 01:51:24;;;;;;;;;;;;;;;20.00;47.04;101069.38;5103584;28;20280;-40
2022/11/14 01:53:51;;;;;;;;;;;;;;;19.98;47.06;101072.41;5123215;28;19970;-39
2022/11/14 01:56:17;;;;;;;;;;;;;;;19.99;47.25;101065.81;5122460;28;19970;-39
2022/11/14 01:58:44;;;;;;;;;;;;;;;20.00;47.08;101072.16;5122512;28;19959;-39
2022/11/14 02:01:09;;;;;;;;;;;;;;;19.98;46.99;101069.66;5107960;28;19973;-39
2022/11/14 02:03:36;;;;;;;;;;;;;;;19.99;47.30;101062.19;5124406;28;19932;-38
2022/11/14 02:06:02;;;;;;;;;;;;;;;19.99;46.97;101064.94;5121916;28;20015;-39
2022/11/14 02:08:27;;;;;;;;;;;;;;;19.99;46.97;101060.28;5107791;28;19949;-38
2022/11/14 02:10:53;;;;;;;;;;;;;;;20.00;47.05;101069.38;5124467;28;19975;-38
2022/11/14 02:13:19;;;;;;;;;;;;;;;19.99;47.08;101064.94;5125811;28;19927;-39
2022/11/14 02:15:44;;;;;;;;;;;;;;;20.00;47.12;101072.16;5119797;28;19939;-38
2022/11/14 02:18:11;;;;;;;;;;;;;;;19.98;47.18;101064.13;5123604;27;19931;-38
2022/11/14 02:20:37;;;;;;;;;;;;;;;19.99;46.95;101068.56;5127600;28;19967;-39
2022/11/14 02:23:03;;;;;;;;;;;;;;;19.99;47.16;101070.47;5123049;28;19960;-38
2022/11/14 02:25:28;;;;;;;;;;;;;;;19.98;46.97;101075.19;5124487;28;19931;-39
2022/11/14 02:27:54;;;;;;;;;;;;;;;20.00;47.01;101069.38;5126054;28;19923;-39
2022/11/14 02:30:20;;;;;;;;;;;;;;;19.99;46.95;101063.03;5125353;28;19932;-38
2022/11/14 02:32:45;;;;;;;;;;;;;;;19.98;46.95;101050.31;5124031;27;20019;-37
2022/11/14 02:35:31;;;;;;;;;;;;;;;19.99;47.27;101056.66;5111831;28;19930;-39
2022/11/14 02:37:57;;;;;;;;;;;;;;;19.99;47.04;101045.59;5125769;28;19932;-37
2022/11/14 02:40:22;;;;;;;;;;;;;;;19.99;47.03;101051.13;5127517;28;20274;-39
2022/11/14 02:42:48;;;;;;;;;;;;;;;19.98;47.25;101044.78;5126965;28;19923;-37
2022/11/14 02:45:13;;;;;;;;;;;;;;;19.99;46.99;101038.16;5126503;28;20386;-39
2022/11/14 02:47:39;;;;;;;;;;;;;;;19.99;47.08;101040.91;5124709;28;19932;-38
2022/11/14 02:50:04;;;;;;;;;;;;;;;19.98;47.13;101036.47;5128181;28;19931;-38
2022/11/14 02:52:30;;;;;;;;;;;;;;;19.98;47.08;101030.94;5126998;28;20346;-38
2022/11/14 02:54:55;;;;;;;;;;;;;;;19.99;47.09;101031.78;5125164;28;19931;-38
2022/11/14 02:57:21;;;;;;;;;;;;;;;19.99;47.16;101031.78;5122967;28;19928;-39
2022/11/14 02:59:47;;;;;;;;;;;;;;;19.98;47.08;101027.38;5128837;28;19930;-38
2022/11/14 03:02:13;;;;;;;;;;;;;;;19.98;46.97;101025.44;5120009;28;19924;-37
2022/11/14 03:04:38;;;;;;;;;;;;;;;19.98;47.04;101019.06;5130127;28;19962;-37
2022/11/14 03:07:04;;;;;;;;;;;;;;;19.99;46.92;101027.09;5128101;28;19975;-39
2022/11/14 03:09:29;;;;;;;;;;;;;;;19.98;47.14;101017.13;5127879;28;19928;-38
2022/11/14 03:11:55;;;;;;;;;;;;;;;19.99;46.93;101023.47;5122479;28;19931;-38
2022/11/14 03:14:20;;;;;;;;;;;;;;;19.98;46.91;101019.91;5124337;28;20299;-38
2022/11/14 03:16:46;;;;;;;;;;;;;;;19.99;46.92;101020.72;5124791;28;19932;-39
2022/11/14 03:19:12;;;;;;;;;;;;;;;19.99;47.09;101015.19;5123077;28;19923;-38
2022/11/14 03:21:37;;;;;;;;;;;;;;;19.98;46.89;101010.78;5124552;28;20010;-39
2022/11/14 03:24:03;;;;;;;;;;;;;;;19.97;47.08;101018.25;5122396;28;19923;-37
2022/11/14 03:26:28;;;;;;;;;;;;;;;19.97;45.87;101012.72;5123317;28;19931;-39
2022/11/14 03:28:54;;;;;;;;;;;;;;;19.98;47.26;101008.84;5125900;27;19923;-38
2022/11/14 03:31:19;;;;;;;;;;;;;;;19.98;47.08;101008.84;5127347;28;19935;-38
2022/11/14 03:33:45;;;;;;;;;;;;;;;19.97;47.04;101004.44;5124428;27;20283;-38
2022/11/14 03:36:11;;;;;;;;;;;;;;;19.96;46.90;100991.72;5125805;28;19924;-39
2022/11/14 03:38:36;;;;;;;;;;;;;;;19.98;47.06;101008.84;5128962;28;19928;-38
2022/11/14 03:41:02;;;;;;;;;;;;;;;19.98;46.87;100996.97;5124227;28;19935;-37
2022/11/14 03:43:29;;;;;;;;;;;;;;;19.98;47.01;100991.44;5104470;28;19980;-37
2022/11/14 03:45:57;;;;;;;;;;;;;;;19.98;46.81;100994.19;5123284;28;20015;-39
2022/11/14 03:48:22;;;;;;;;;;;;;;;19.98;47.13;100996.97;5108739;28;19938;-39
2022/11/14 03:50:48;;;;;;;;;;;;;;;19.98;46.91;100994.19;5128440;28;19923;-38
2022/11/14 03:53:14;;;;;;;;;;;;;;;19.98;47.13;100995.00;5108419;28;19923;-37
2022/11/14 03:55:39;;;;;;;;;;;;;;;19.97;47.00;100993.38;5106466;28;19923;-38
2022/11/14 03:58:05;;;;;;;;;;;;;;;19.98;46.93;100999.72;5122643;28;19927;-36
2022/11/14 04:00:30;;;;;;;;;;;;;;;19.98;46.91;100999.72;5121899;28;19928;-38
2022/11/14 04:02:56;;;;;;;;;;;;;;;19.98;46.91;100994.19;5128248;27;19931;-39
2022/11/14 04:05:22;;;;;;;;;;;;;;;19.98;46.94;100991.44;5110755;28;19931;-39
2022/11/14 04:07:47;;;;;;;;;;;;;;;19.98;46.93;100996.97;5106689;28;20014;-37
2022/11/14 04:10:13;;;;;;;;;;;;;;;19.97;46.95;100985.06;5122827;28;19930;-39
2022/11/14 04:12:38;;;;;;;;;;;;;;;19.97;46.88;100982.31;5120227;28;20367;-38
2022/11/14 04:15:04;;;;;;;;;;;;;;;19.96;47.08;100980.66;5125148;28;20170;-39
2022/11/14 04:17:30;;;;;;;;;;;;;;;19.96;46.93;100977.91;5126732;28;20001;-38
2022/11/14 04:19:58;;;;;;;;;;;;;;;19.98;46.86;100977.59;5125482;28;20298;-39
2022/11/14 04:22:24;;;;;;;;;;;;;;;19.97;46.98;100970.44;5128049;28;20355;-38
2022/11/14 04:24:49;;;;;;;;;;;;;;;19.97;46.98;100971.25;5122927;28;19924;-38
2022/11/14 04:27:15;;;;;;;;;;;;;;;19.97;47.11;100971.25;5122305;28;19925;-38
2022/11/14 04:29:40;;;;;;;;;;;;;;;19.97;46.87;100968.50;5127065;28;20057;-37
2022/11/14 04:32:06;;;;;;;;;;;;;;;19.97;46.85;100976.78;5124776;28;20256;-38
2022/11/14 04:34:32;;;;;;;;;;;;;;;19.98;47.13;100977.59;5125950;27;19932;-38
2022/11/14 04:36:57;;;;;;;;;;;;;;;19.97;46.79;100976.78;5122481;28;19931;-38
2022/11/14 04:39:23;;;;;;;;;;;;;;;19.97;47.07;100973.19;5122172;27;19923;-38
2022/11/14 04:41:48;;;;;;;;;;;;;;;19.97;47.19;100968.50;5125040;28;19949;-38
2022/11/14 04:44:14;;;;;;;;;;;;;;;19.97;46.88;100975.97;5121023;28;19955;-38
2022/11/14 04:46:39;;;;;;;;;;;;;;;19.96;47.00;100969.63;5121881;28;19969;-38
2022/11/14 04:49:05;;;;;;;;;;;;;;;19.97;47.19;100971.25;5121187;28;19931;-38
2022/11/14 04:51:31;;;;;;;;;;;;;;;19.97;46.97;100968.50;5123484;28;19934;-39
2022/11/14 04:53:56;;;;;;;;;;;;;;;19.96;46.85;100966.84;5125620;28;20644;-38
2022/11/14 04:56:24;;;;;;;;;;;;;;;19.97;47.14;100967.66;5127312;28;19976;-37
2022/11/14 04:58:49;;;;;;;;;;;;;;;19.96;46.89;100966.03;5123487;28;19967;-38
2022/11/14 05:01:15;;;;;;;;;;;;;;;19.96;47.13;100972.38;5121386;28;19934;-38
2022/11/14 05:03:40;;;;;;;;;;;;;;;19.96;46.98;100972.38;5116988;28;20420;-39
2022/11/14 05:06:06;;;;;;;;;;;;;;;19.97;47.13;100964.91;5128219;28;20375;-39
2022/11/14 05:08:32;;;;;;;;;;;;;;;19.96;46.80;100966.84;5126840;28;19923;-38
2022/11/14 05:10:58;;;;;;;;;;;;;;;19.97;46.90;100962.13;5108932;28;20323;-38
2022/11/14 05:13:23;;;;;;;;;;;;;;;19.97;46.94;100959.38;5122086;28;20379;-39
2022/11/14 05:15:49;;;;;;;;;;;;;;;19.97;46.87;100959.38;5121603;28;19941;-39
2022/11/14 05:18:15;;;;;;;;;;;;;;;19.96;47.08;100953.03;5122875;28;19923;-37
2022/11/14 05:20:40;;;;;;;;;;;;;;;19.96;46.94;100950.25;5121464;28;20387;-40
2022/11/14 05:23:06;;;;;;;;;;;;;;;19.96;46.74;100941.16;5123438;28;19977;-40
2022/11/14 05:25:31;;;;;;;;;;;;;;;19.96;46.94;100947.50;5120500;28;19924;-38
2022/11/14 05:27:57;;;;;;;;;;;;;;;19.97;46.83;100945.56;5123404;28;19924;-38
2022/11/14 05:30:22;;;;;;;;;;;;;;;19.95;46.83;100937.56;5126613;28;19930;-37
2022/11/14 05:32:50;;;;;;;;;;;;;;;19.96;46.74;100943.91;5123070;27;20425;-38
2022/11/14 05:35:15;;;;;;;;;;;;;;;19.96;46.79;100941.16;5106015;28;19982;-38
2022/11/14 05:37:41;;;;;;;;;;;;;;;19.97;46.83;100937.25;5124449;28;19923;-39
2022/11/14 05:40:06;;;;;;;;;;;;;;;19.95;46.86;100926.50;5124160;28;19928;-39
2022/11/14 05:42:32;;;;;;;;;;;;;;;19.96;46.94;100924.56;5122773;28;20295;-38
2022/11/14 05:44:57;;;;;;;;;;;;;;;19.96;46.90;100921.78;5123275;28;19976;-37
2022/11/14 05:47:23;;;;;;;;;;;;;;;19.95;45.87;100918.22;5122342;27;19931;-38
2022/11/14 05:49:49;;;;;;;;;;;;;;;19.95;46.71;100914.63;5125030;28;19924;-39
2022/11/14 05:52:14;;;;;;;;;;;;;;;19.96;46.55;100917.09;5126200;27;19927;-39
2022/11/14 05:54:40;;;;;;;;;;;;;;;19.96;46.83;100913.50;5126461;28;20793;-38
2022/11/14 05:57:05;;;;;;;;;;;;;;;19.96;46.92;100917.09;5126920;28;19928;-38
2022/11/14 05:59:31;;;;;;;;;;;;;;;19.96;46.64;100917.09;5123909;28;19939;-39
2022/11/14 06:01:56;;;;;;;;;;;;;;;19.96;46.78;100906.03;5119091;28;21555;-39
2022/11/14 06:04:22;;;;;;;;;;;;;;;19.95;46.68;100907.16;5129485;28;19924;-38
2022/11/14 06:06:48;;;;;;;;;;;;;;;19.95;46.77;100904.38;5126962;28;20427;-39
2022/11/14 06:09:13;;;;;;;;;;;;;;;19.95;46.75;100912.69;5127635;28;19928;-37
2022/11/14 06:11:39;;;;;;;;;;;;;;;19.94;46.36;100904.66;5125029;28;19939;-39
2022/11/14 06:14:04;;;;;;;;;;;;;;;19.94;46.35;100908.25;5128946;28;20425;-38
2022/11/14 06:16:36;;;;;;;;;;;;;;;19.94;46.77;100908.25;5127830;28;19976;-37
2022/11/14 06:19:01;;;;;;;;;;;;;;;19.96;46.66;100908.81;5127333;28;19925;-39
2022/11/14 06:21:27;;;;;;;;;;;;;;;19.96;45.86;100910.75;5127956;28;19934;-39
2022/11/14 06:23:52;;;;;;;;;;;;;;;19.93;44.75;100903.00;5126182;28;19927;-38
2022/11/14 06:26:19;;;;;;;;;;;;;;;19.93;44.40;100914.06;5128212;28;19924;-37
2022/11/14 06:28:45;;;;;;;;;;;;;;;19.91;43.85;100910.78;5108233;28;19928;-38
2022/11/14 06:31:11;;;;;;;;;;;;;;;19.92;44.58;100906.91;5124831;28;19923;-38
2022/11/14 06:33:36;;;;;;;;;;;;;;;19.91;44.32;100905.25;5127552;27;19923;-38
2022/11/14 06:36:03;;;;;;;;;;;;;;;19.93;44.07;100900.25;5122688;28;19980;-38
2022/11/14 06:38:29;;;;;;;;;;;;;;;19.93;44.29;100905.78;5125329;28;20097;-39
2022/11/14 06:41:12;;;;;;;;;;;;;;;19.93;44.43;100908.53;5103321;28;20045;-39
2022/11/14 06:43:39;;;;;;;;;;;;;;;19.93;44.53;100908.53;5126044;28;19966;-39
2022/11/14 06:46:04;;;;;;;;;;;;;;;19.91;44.80;100913.53;5121266;28;19981;-39
2022/11/14 06:48:30;;;;;;;;;;;;;;;19.91;44.36;100913.53;5124965;28;19931;-37
2022/11/14 06:50:56;;;;;;;;;;;;;;;19.91;44.84;100910.78;5123569;28;20071;-37
2022/11/14 06:53:22;;;;;;;;;;;;;;;19.91;44.59;100919.91;5105065;28;19930;-40
2022/11/14 06:55:52;;;;;;;;;;;;;;;19.93;44.75;100914.06;5122007;28;19931;-39
2022/11/14 06:58:18;;;;;;;;;;;;;;;19.88;44.23;100911.34;5118435;28;19924;-37
2022/11/14 07:00:43;;;;;;;;;;;;;;;19.91;44.07;100913.53;5116933;28;20386;-41
2022/11/14 07:03:09;;;;;;;;;;;;;;;19.90;44.34;100918.22;5119389;27;19924;-38
2022/11/14 07:05:35;;;;;;;;;;;;;;;19.88;43.56;100923.22;5115474;28;19931;-38
2022/11/14 07:08:00;;;;;;;;;;;;;;;19.88;43.85;100928.75;5111019;28;19928;-40
2022/11/14 07:10:26;;;;;;;;;;;;;;;19.88;43.39;100925.97;5117143;28;19946;-39
2022/11/14 07:12:51;;;;;;;;;;;;;;;19.88;43.83;100920.47;5122925;28;19932;-40
2022/11/14 07:15:17;;;;;;;;;;;;;;;19.91;43.90;100930.13;5122013;28;19934;-39
2022/11/14 07:17:42;;;;;;;;;;;;;;;19.91;43.57;100930.13;5127337;28;19935;-38
2022/11/14 07:20:08;;;;;;;;;;;;;;;19.91;43.58;100922.66;5120470;28;19930;-39
2022/11/14 07:22:34;;;;;;;;;;;;;;;19.91;43.42;100919.91;5122403;28;19946;-37
2022/11/14 07:24:59;;;;;;;;;;;;;;;19.91;43.84;100922.66;5119421;28;19923;-38
2022/11/14 07:27:25;;;;;;;;;;;;;;;19.91;43.62;100936.47;5122990;28;20351;-39
2022/11/14 07:29:50;;;;;;;;;;;;;;;19.92;43.51;100934.53;5117218;28;19954;-38
2022/11/14 07:32:16;;;;;;;;;;;;;;;19.70;41.61;100934.94;5117415;28;19930;-42
2022/11/14 07:34:41;;;;;;;;;;;;;;;19.81;44.27;100925.47;5117936;28;19927;-39
2022/11/14 07:37:07;;;;;;;;;;;;;;;19.89;44.01;100929.56;5117318;28;19927;-43
2022/11/14 07:39:33;;;;;;;;;;;;;;;19.90;42.92;100937.56;5121190;28;19943;-38
2022/11/14 07:41:58;;;;;;;;;;;;;;;19.90;42.86;100934.81;5121921;28;19954;-39
2022/11/14 07:44:24;;;;;;;;;;;;;;;19.92;43.24;100942.81;5124480;28;19931;-38
2022/11/14 07:46:50;;;;;;;;;;;;;;;19.93;43.78;100942.53;5121183;28;19977;-38
2022/11/14 07:49:16;;;;;;;;;;;;;;;19.92;43.50;100935.34;5118470;28;19931;-38
2022/11/14 07:51:41;;;;;;;;;;;;;;;19.93;43.98;100939.75;5120189;28;20225;-40
2022/11/14 07:54:09;;;;;;;;;;;;;;;19.94;43.99;100932.28;5116029;28;19957;-38
2022/11/14 07:56:35;;;;;;;;;;;;;;;19.92;43.77;100942.81;5096081;28;20359;-40
2022/11/14 07:59:00;;;;;;;;;;;;;;;19.73;42.71;100939.88;5111261;28;19939;-39
2022/11/14 08:01:26;;;;;;;;;;;;;;;19.85;43.05;100931.25;5115830;27;20678;-38
2022/11/14 08:03:51;;;;;;;;;;;;;;;19.91;43.61;100927.38;5111990;27;19938;-39
2022/11/14 08:06:17;;;;;;;;;;;;;;;19.94;43.69;100932.28;5107603;27;20413;-39
2022/11/14 08:08:43;;;;;;;;;;;;;;;19.96;44.14;100928.16;5108971;27;19931;-37
2022/11/14 08:11:08;;;;;;;;;;;;;;;19.97;44.29;100927.03;5115905;28;19938;-38
2022/11/14 08:13:34;;;;;;;;;;;;;;;19.55;42.21;100927.50;5114977;28;19923;-40
2022/11/14 08:16:04;;;;;;;;;;;;;;;19.80;42.56;100930.16;5119371;27;19931;-39
2022/11/14 08:18:37;;;;;;;;;;;;;;;19.92;43.66;100927.06;5096419;28;19935;-37
2022/11/14 08:21:03;;;;;;;;;;;;;;;19.97;43.23;100927.03;5121435;28;19928;-39
2022/11/14 08:23:28;;;;;;;;;;;;;;;19.98;43.72;100925.09;5113045;27;19938;-39
2022/11/14 08:25:54;;;;;;;;;;;;;;;19.99;43.69;100932.25;5107817;27;19938;-38
2022/11/14 08:28:19;;;;;;;;;;;;;;;20.00;43.62;100920.13;5113541;28;19930;-38
2022/11/14 08:30:45;;;;;;;;;;;;;;;20.01;43.58;100913.47;5119027;27;19942;-37
2022/11/14 08:33:11;;;;;;;;;;;;;;;20.00;43.77;100898.81;5121178;27;19939;-38
2022/11/14 08:35:36;;;;;;;;;;;;;;;20.02;44.44;100904.88;5120881;28;20422;-37
2022/11/14 08:38:02;;;;;;;;;;;;;;;20.02;43.93;100898.53;5120901;28;19943;-36
2022/11/14 08:40:27;;;;;;;;;;;;;;;20.02;44.24;100904.88;5122731;27;19973;-39
2022/11/14 08:43:01;;;;;;;;;;;;;;;20.04;43.99;100899.91;5104522;28;19928;-38
2022/11/14 08:45:27;;;;;;;;;;;;;;;20.04;44.28;100904.59;5101929;28;20046;-39
2022/11/14 08:47:53;;;;;;;;;;;;;;;20.04;44.28;100902.66;5116606;28;19966;-38
2022/11/14 08:50:18;;;;;;;;;;;;;;;20.05;44.48;100895.19;5115945;28;19924;-38
2022/11/14 08:52:48;;;;;;;;;;;;;;;20.04;44.29;100885.25;5119020;28;20465;-38
2022/11/14 08:55:13;;;;;;;;;;;;;;;20.04;44.10;100888.84;5117354;28;19982;-37
2022/11/14 08:57:39;;;;;;;;;;;;;;;20.05;44.56;100892.44;5119990;28;19931;-40
2022/11/14 09:00:05;;;;;;;;;;;;;;;20.06;44.40;100894.06;5113663;27;19934;-38
2022/11/14 09:02:30;;;;;;;;;;;;;;;20.07;44.41;100898.47;5117467;27;20018;-40
2022/11/14 09:04:56;;;;;;;;;;;;;;;20.08;44.63;100893.78;5118911;27;20288;-37
2022/11/14 09:07:21;;;;;;;;;;;;;;;20.08;44.55;100896.53;5113928;27;19931;-37
2022/11/14 09:09:47;;;;;;;;;;;;;;;20.08;44.43;100899.31;5106270;27;19943;-38
2022/11/14 09:12:12;;;;;;;;;;;;;;;20.09;44.82;100899.03;5114259;27;19930;-38
2022/11/14 09:14:38;;;;;;;;;;;;;;;20.10;44.59;100900.69;5116205;27;19928;-40
2022/11/14 09:17:04;;;;;;;;;;;;;;;20.11;45.04;100898.75;5117429;27;19934;-39
2022/11/14 09:19:31;;;;;;;;;;;;;;;20.11;44.84;100907.03;5116384;27;19938;-39
2022/11/14 09:21:57;;;;;;;;;;;;;;;20.11;44.99;100907.84;5117670;27;19928;-38
2022/11/14 09:24:22;;;;;;;;;;;;;;;20.10;44.88;100903.44;5123081;28;20260;-37
2022/11/14 09:26:49;;;;;;;;;;;;;;;20.11;45.34;100904.28;5118749;28;19954;-39
2022/11/14 09:29:22;;;;;;;;;;;;;;;20.11;44.84;100898.75;5099152;27;19931;-38
2022/11/14 09:31:47;;;;;;;;;;;;;;;19.96;45.36;100907.97;5118916;27;19984;-39
2022/11/14 09:34:13;;;;;;;;;;;;;;;20.08;45.29;100902.06;5109517;27;19956;-38
2022/11/14 09:36:39;;;;;;;;;;;;;;;20.13;45.30;100902.88;5106470;27;20088;-39
2022/11/14 09:39:04;;;;;;;;;;;;;;;20.14;45.36;100906.47;5116595;27;20384;-38
2022/11/14 09:41:38;;;;;;;;;;;;;;;20.15;45.19;100906.16;5118349;28;19927;-39
2022/11/14 09:44:23;;;;;;;;;;;;;;;20.14;44.83;100910.06;5120010;28;19967;-37
2022/11/14 09:46:52;;;;;;;;;;;;;;;20.14;45.03;100907.28;5105793;27;20096;-38
2022/11/14 09:49:37;;;;;;;;;;;;;;;20.27;45.35;100909.41;5094381;28;20232;-42
2022/11/14 09:52:09;;;;;;;;;;;;;;;20.23;44.30;100902.78;5101662;28;19974;-41
2022/11/14 09:54:39;;;;;;;;;;;;;;;20.02;44.79;100893.81;5099106;28;20583;-42
2022/11/14 09:57:07;;;;;;;;;;;;;;;20.02;45.02;100895.75;5103633;28;19974;-38
2022/11/14 09:59:33;;;;;;;;;;;;;;;20.13;44.78;100888.22;5116430;27;20872;-39
2022/11/14 10:02:00;;;;;;;;;;;;;;;20.17;44.73;100897.59;5122081;28;19931;-38
2022/11/14 10:04:33;;;;;;;;;;;;;;;20.17;44.90;100886.53;5115228;28;19937;-38
2022/11/14 10:10:01;;;;;;;;;;;;;;;20.16;44.91;100871.88;5158112;27;19938;-40
2022/11/14 10:12:33;;;;;;;;;;;;;;;20.17;44.96;100869.97;5121396;27;20026;-40
2022/11/14 10:15:03;;;;;;;;;;;;;;;20.18;45.12;100863.31;5130266;27;20590;-38
2022/11/14 10:17:48;;;;;;;;;;;;;;;20.18;44.95;100866.06;5126200;27;20455;-39
2022/11/14 10:25:52;;;;;;;;;;;;;;;20.35;45.59;100860.13;5151743;27;20192;-39
2022/11/14 10:28:28;;;;;;;;;;;;;;;20.30;45.61;100859.06;5128998;27;20035;-39
2022/11/14 10:30:59;;;;;;;;;;;;;;;20.27;45.54;100845.78;5133542;27;20410;-40
2022/11/14 10:36:01;;;;;;;;;;;;;;;20.28;45.71;100846.63;5151864;27;19926;-38
2022/11/14 10:38:28;;;;;;;;;;;;;;;20.27;45.56;100844.97;5143757;27;20392;-40
2022/11/14 10:40:58;;;;;;;;;;;;;;;20.27;45.52;100842.22;5140366;27;20280;-39
2022/11/14 10:43:25;;;;;;;;;;;;;;;20.27;45.28;100853.25;5142841;27;20006;-40
2022/11/14 10:45:56;;;;;;;;;;;;;;;20.26;45.53;100840.56;5122698;27;19962;-39
2022/11/14 10:48:29;;;;;;;;;;;;;;;20.26;45.43;100838.63;5131142;27;20231;-39
2022/11/14 10:51:04;;;;;;;;;;;;;;;20.28;45.29;100839.13;5132837;27;20331;-38
2022/11/14 10:53:34;;;;;;;;;;;;;;;20.26;45.34;100832.25;5150068;27;19972;-39
2022/11/14 10:56:00;;;;;;;;;;;;;;;20.16;45.39;100833.16;5147304;27;20017;-40
2022/11/14 10:58:30;;;;;;;;;;;;;;;20.25;45.35;100836.97;5146403;27;19933;-39
2022/11/14 11:01:23;;;;;;;;;;;;;;;20.28;45.40;100825.31;5148713;27;19931;-38
2022/11/14 11:03:49;;;;;;;;;;;;;;;20.27;45.39;100825.63;5132900;27;19939;-39
2022/11/14 11:06:29;;;;;;;;;;;;;;;20.14;45.18;100826.28;5147260;27;19931;-39
2022/11/14 11:11:40;;;;;;;;;;;;;;;20.32;45.38;100835.81;5130998;27;19935;-38
2022/11/14 11:14:08;;;;;;;;;;;;;;;20.30;45.41;100839.69;5146101;27;20255;-38
2022/11/14 11:16:34;;;;;;;;;;;;;;;20.30;45.51;100841.63;5131751;27;19969;-37
2022/11/14 11:19:19;;;;;;;;;;;;;;;20.31;45.38;100837.75;5147240;27;19923;-39
2022/11/14 11:21:46;;;;;;;;;;;;;;;20.30;45.53;100839.69;5147967;27;19954;-40
2022/11/14 11:24:12;;;;;;;;;;;;;;;20.32;45.57;100822.78;5148163;27;19930;-39
2022/11/14 11:26:37;;;;;;;;;;;;;;;20.32;45.73;100808.16;5149782;27;19927;-39
2022/11/14 11:29:13;;;;;;;;;;;;;;;20.30;45.73;100812.03;5148168;27;19980;-38
2022/11/14 11:31:49;;;;;;;;;;;;;;;20.32;45.48;100803.44;5131636;27;20071;-39
2022/11/14 11:34:15;;;;;;;;;;;;;;;20.32;45.52;100816.44;5143409;27;19923;-37
2022/11/14 11:36:42;;;;;;;;;;;;;;;20.33;45.48;100801.50;5137951;27;20017;-39
2022/11/14 11:39:09;;;;;;;;;;;;;;;20.33;45.50;100805.06;5139739;27;19970;-38
2022/11/14 11:41:34;;;;;;;;;;;;;;;20.33;45.55;100802.31;5119976;27;20029;-38
2022/11/14 11:44:20;;;;;;;;;;;;;;;20.33;45.73;100802.31;5127477;27;19930;-41
2022/11/14 11:46:47;;;;;;;;;;;;;;;20.34;45.54;100812.28;5138777;27;19931;-40
2022/11/14 11:49:14;;;;;;;;;;;;;;;20.36;45.31;100811.97;5131593;27;20169;-40
2022/11/14 11:51:40;;;;;;;;;;;;;;;20.37;45.37;100802.56;5108626;27;20346;-39
2022/11/14 11:54:09;;;;;;;;;;;;;;;20.39;45.88;100797.56;5132550;27;20412;-37
2022/11/14 11:56:34;;;;;;;;;;;;;;;20.40;45.36;100797.28;5112398;27;20343;-40
2022/11/14 11:59:13;;;;;;;;;;;;;;;20.38;45.56;100791.22;5134854;27;20035;-41
2022/11/14 12:01:39;;;;;;;;;;;;;;;20.40;45.80;100788.16;5130499;27;20030;-39
2022/11/14 12:04:04;;;;;;;;;;;;;;;20.40;45.69;100766.03;5139438;27;20297;-37
2022/11/14 12:06:31;;;;;;;;;;;;;;;20.39;45.79;100773.50;5135733;27;19999;-40
2022/11/14 12:09:02;;;;;;;;;;;;;;;20.40;45.77;100761.31;5136231;27;19971;-40
2022/11/14 12:11:29;;;;;;;;;;;;;;;20.40;46.22;100771.56;5117014;27;19966;-39
2022/11/14 12:14:14;;;;;;;;;;;;;;;20.37;45.91;100758.31;5140144;27;20451;-40
2022/11/14 12:17:00;;;;;;;;;;;;;;;20.39;45.95;100745.84;5115996;27;19943;-40
2022/11/14 12:19:36;;;;;;;;;;;;;;;20.39;45.88;100722.91;5119279;27;20030;-40
2022/11/14 12:22:21;;;;;;;;;;;;;;;20.38;45.90;100722.06;5131354;27;20371;-39
2022/11/14 12:24:51;;;;;;;;;;;;;;;20.41;46.04;100723.41;5120339;27;19931;-39
2022/11/14 12:27:20;;;;;;;;;;;;;;;20.40;46.02;100716.25;5133641;27;20428;-40
2022/11/14 12:29:48;;;;;;;;;;;;;;;20.41;45.69;100723.41;5131582;27;19937;-40
2022/11/14 12:32:17;;;;;;;;;;;;;;;20.41;45.59;100720.66;5121320;27;19971;-38
2022/11/14 12:34:44;;;;;;;;;;;;;;;20.41;45.46;100723.41;5103686;27;20051;-40
2022/11/14 12:37:13;;;;;;;;;;;;;;;20.43;45.84;100726.72;5104601;27;19969;-39
2022/11/14 12:39:39;;;;;;;;;;;;;;;20.42;45.94;100714.00;5124726;27;19960;-38
2022/11/14 12:42:05;;;;;;;;;;;;;;;20.43;45.73;100710.94;5128514;27;20261;-39
2022/11/14 12:44:33;;;;;;;;;;;;;;;20.42;45.61;100714.00;5127337;27;20202;-39
2022/11/14 12:52:43;;;;;;;;;;;;;;;20.42;45.81;100719.53;5144241;27;19930;-40
2022/11/14 12:58:16;;;;;;;;;;;;;;;20.42;45.73;100714.84;5152764;27;19925;-39